createdAt,value
2019-02-25T00:02:42.110Z,5.47
2019-02-25T00:07:46.272Z,6.70
2019-02-25T00:12:50.444Z,5.23
2019-02-25T00:17:54.601Z,6.57
2019-02-25T00:22:58.763Z,5.00
2019-02-25T00:28:03.920Z,5.83
2019-02-25T00:33:08.219Z,6.07
2019-02-25T00:38:12.382Z,6.40
2019-02-25T00:43:17.639Z,3.93
2019-02-25T00:48:21.807Z,5.00
2019-02-25T00:53:27.064Z,5.33
2019-02-25T00:58:31.315Z,4.93
2019-02-25T01:03:36.827Z,5.40
2019-02-25T01:08:41.002Z,7.50
2019-02-25T01:13:46.618Z,8.63
2019-02-25T01:18:50.793Z,6.43
2019-02-25T01:23:55.049Z,7.53
2019-02-25T01:28:59.206Z,5.87
2019-02-25T01:34:04.472Z,8.37
2019-02-25T01:39:08.911Z,5.67
2019-02-25T01:44:14.677Z,4.77
2019-02-25T01:49:18.837Z,6.00
2019-02-25T01:54:24.689Z,6.47
2019-02-25T01:59:28.853Z,5.77
2019-02-25T02:04:34.290Z,4.57
2019-02-25T02:09:38.453Z,6.60
2019-02-25T02:14:43.758Z,7.10
2019-02-25T02:19:47.922Z,6.07
2019-02-25T02:24:52.114Z,7.33
2019-02-25T02:29:56.315Z,6.80
2019-02-25T02:35:01.901Z,6.93
2019-02-25T02:40:06.221Z,9.10
2019-02-25T02:45:28.381Z,9.03
2019-02-25T02:50:32.572Z,7.10
2019-02-25T02:55:38.423Z,8.00
2019-02-25T03:00:42.594Z,8.20
2019-02-25T03:05:48.339Z,5.63
2019-02-25T03:10:52.495Z,5.23
2019-02-25T03:15:57.932Z,7.47
2019-02-25T03:21:02.093Z,6.27
2019-02-25T03:26:07.043Z,5.40
2019-02-25T03:31:11.195Z,4.47
2019-02-25T03:36:16.718Z,9.87
2019-02-25T03:41:20.875Z,7.83
2019-02-25T03:46:26.705Z,6.17
2019-02-25T03:51:30.878Z,6.43
2019-02-25T03:56:36.509Z,8.00
2019-02-25T04:01:40.694Z,6.00
2019-02-25T04:06:46.011Z,4.97
2019-02-25T04:11:50.189Z,7.33
2019-02-25T04:16:55.584Z,6.43
2019-02-25T04:21:59.764Z,5.60
2019-02-25T04:27:04.187Z,6.03
2019-02-25T04:32:08.457Z,7.63
2019-02-25T04:37:13.862Z,9.47
2019-02-25T04:42:18.101Z,7.67
2019-02-25T04:47:23.507Z,8.40
2019-02-25T04:52:27.780Z,6.47
2019-02-25T04:57:33.245Z,6.10
2019-02-25T05:02:37.414Z,7.00
2019-02-25T05:07:42.843Z,8.13
2019-02-25T05:13:00.915Z,7.77
2019-02-25T05:18:06.794Z,5.83
2019-02-25T05:23:11.005Z,6.43
2019-02-25T05:28:16.564Z,8.00
2019-02-25T05:33:20.764Z,7.90
2019-02-25T05:38:26.070Z,8.10
2019-02-25T05:43:30.247Z,8.10
2019-02-25T05:48:36.599Z,10.60
2019-02-25T05:53:40.780Z,7.20
2019-02-25T05:58:46.586Z,7.80
2019-02-25T06:03:50.777Z,7.50
2019-02-25T06:08:56.590Z,7.97
2019-02-25T06:14:02.398Z,6.67
2019-02-25T06:19:07.748Z,6.10
2019-02-25T06:24:12.061Z,6.27
2019-02-25T06:29:17.536Z,6.50
2019-02-25T06:34:21.695Z,5.50
2019-02-25T06:39:27.420Z,6.00
2019-02-25T06:44:31.627Z,8.37
2019-02-25T06:49:37.002Z,5.93
2019-02-25T06:54:41.218Z,7.37
2019-02-25T06:59:46.502Z,8.17
2019-02-25T07:04:56.814Z,6.57
2019-02-25T07:10:14.364Z,7.43
2019-02-25T07:15:37.700Z,8.23
2019-02-25T07:20:58.774Z,10.90
2019-02-25T07:26:09.578Z,7.63
2019-02-25T07:31:36.643Z,8.60
2019-02-25T07:36:55.720Z,5.70
2019-02-25T07:42:18.433Z,7.23
2019-02-25T07:47:40.339Z,9.67
2019-02-25T07:53:09.471Z,10.10
2019-02-25T07:58:34.085Z,11.80
2019-02-25T08:03:56.000Z,10.03
2019-02-25T08:09:25.355Z,10.40
2019-02-25T08:14:47.592Z,10.23
2019-02-25T08:20:09.676Z,13.13
2019-02-25T08:25:52.071Z,15.10
2019-02-25T08:31:09.802Z,12.17
2019-02-25T08:36:45.630Z,11.77
2019-02-25T08:42:15.713Z,11.37
2019-02-25T08:47:39.327Z,13.23
2019-02-25T08:52:43.524Z,13.88
2019-02-25T08:57:47.701Z,14.23
2019-02-25T09:02:51.901Z,11.68
2019-02-25T09:07:56.081Z,12.35
2019-02-25T09:13:00.266Z,11.10
2019-02-25T09:18:04.140Z,15.13
2019-02-25T09:23:08.587Z,13.80
2019-02-25T09:28:13.041Z,14.60
2019-02-25T09:33:17.523Z,10.67
2019-02-25T09:38:23.596Z,9.50
2019-02-25T09:43:28.291Z,9.50
2019-02-25T09:48:32.753Z,16.47
2019-02-25T09:53:37.197Z,10.50
2019-02-25T09:58:41.641Z,9.90
2019-02-25T10:03:46.104Z,10.67
2019-02-25T10:08:50.539Z,8.13
2019-02-25T10:13:54.974Z,8.33
2019-02-25T10:18:59.439Z,10.47
2019-02-25T10:24:03.895Z,11.87
2019-02-25T10:29:08.406Z,10.03
2019-02-25T10:34:12.864Z,9.93
2019-02-25T10:39:17.858Z,8.90
2019-02-25T10:44:23.437Z,7.17
2019-02-25T10:49:29.414Z,10.10
2019-02-25T10:54:34.119Z,7.20
2019-02-25T10:59:41.493Z,8.53
2019-02-25T11:04:47.462Z,11.93
2019-02-25T11:10:12.021Z,7.80
2019-02-25T11:15:17.328Z,7.30
2019-02-25T11:20:23.109Z,6.77
2019-02-25T11:25:28.489Z,4.63
2019-02-25T11:30:35.074Z,5.10
2019-02-25T11:35:41.094Z,6.03
2019-02-25T11:40:47.036Z,7.13
2019-02-25T11:45:51.508Z,7.13
2019-02-25T11:50:57.479Z,5.43
2019-02-25T11:56:01.936Z,6.83
2019-02-25T12:01:07.773Z,5.17
2019-02-25T12:06:12.320Z,4.43
2019-02-25T12:11:18.282Z,4.63
2019-02-25T12:16:22.725Z,11.30
2019-02-25T12:21:28.489Z,6.17
2019-02-25T12:26:32.948Z,4.80
2019-02-25T12:31:37.926Z,4.47
2019-02-25T12:36:42.385Z,4.17
2019-02-25T12:41:48.283Z,4.13
2019-02-25T12:46:52.826Z,6.63
2019-02-25T12:51:58.491Z,3.60
2019-02-25T12:57:04.670Z,7.63
2019-02-25T13:02:10.309Z,6.57
2019-02-25T13:07:14.820Z,5.10
2019-02-25T13:12:23.473Z,3.93
2019-02-25T13:17:27.978Z,4.30
2019-02-25T13:22:32.826Z,3.97
2019-02-25T13:27:37.304Z,3.27
2019-02-25T13:32:43.023Z,2.67
2019-02-25T13:37:49.035Z,3.50
2019-02-25T13:42:55.094Z,5.87
2019-02-25T13:47:59.625Z,4.80
2019-02-25T13:53:04.330Z,3.57
2019-02-25T13:58:08.867Z,2.83
2019-02-25T14:03:14.108Z,3.80
2019-02-25T14:08:18.662Z,3.83
2019-02-25T14:13:24.075Z,6.83
2019-02-25T14:18:28.623Z,7.47
2019-02-25T14:23:33.561Z,4.27
2019-02-25T14:28:38.096Z,7.50
2019-02-25T14:33:43.479Z,5.10
2019-02-25T14:38:48.023Z,9.60
2019-02-25T14:43:54.210Z,6.43
2019-02-25T14:48:59.239Z,7.80
2019-02-25T14:54:04.273Z,3.50
2019-02-25T14:59:14.542Z,3.23
2019-02-25T15:04:16.262Z,4.97
2019-02-25T15:09:20.804Z,3.13
2019-02-25T15:14:25.954Z,3.27
2019-02-25T15:19:32.525Z,3.80
2019-02-25T15:24:36.982Z,2.07
2019-02-25T15:29:42.349Z,2.67
2019-02-25T15:34:48.584Z,3.03
2019-02-25T15:39:55.913Z,3.37
2019-02-25T15:45:01.611Z,4.50
2019-02-25T15:50:07.965Z,2.57
2019-02-25T15:55:16.817Z,3.10
2019-02-25T16:00:23.260Z,2.70
2019-02-25T16:05:29.709Z,4.20
2019-02-25T16:10:35.310Z,4.67
2019-02-25T16:15:43.294Z,5.90
2019-02-25T16:20:47.878Z,3.47
2019-02-25T16:25:54.829Z,2.60
2019-02-25T16:31:00.041Z,3.67
2019-02-25T16:36:06.184Z,2.03
2019-02-25T16:41:12.142Z,5.37
2019-02-25T16:46:20.177Z,4.77
2019-02-25T16:51:25.741Z,5.70
2019-02-25T16:56:31.601Z,3.60
2019-02-25T17:01:37.533Z,3.57
2019-02-25T17:06:46.374Z,4.50
2019-02-25T17:11:51.199Z,3.23
2019-02-25T17:16:57.411Z,2.97
2019-02-25T17:22:05.125Z,1.70
2019-02-25T17:27:11.803Z,4.83
2019-02-25T17:32:21.141Z,2.27
2019-02-25T17:37:26.763Z,3.52
2019-02-25T17:42:33.489Z,2.12
2019-02-25T17:47:41.865Z,2.80
2019-02-25T17:52:45.153Z,1.82
2019-02-25T17:57:52.063Z,1.73
2019-02-25T18:02:59.203Z,1.20
2019-02-25T18:08:05.311Z,1.70
2019-02-25T18:13:10.885Z,2.20
2019-02-25T18:18:17.803Z,1.60
2019-02-25T18:23:22.428Z,3.00
2019-02-25T18:28:28.907Z,2.22
2019-02-25T18:33:33.897Z,2.80
2019-02-25T18:38:39.049Z,2.55
2019-02-25T18:43:45.096Z,2.77
2019-02-25T18:48:51.321Z,1.53
2019-02-25T18:53:59.155Z,1.77
2019-02-25T18:59:09.587Z,1.20
2019-02-25T19:04:11.130Z,1.57
2019-02-25T19:09:18.249Z,1.62
2019-02-25T19:14:24.176Z,3.50
2019-02-25T19:19:33.801Z,1.82
2019-02-25T19:24:40.385Z,3.17
2019-02-25T19:29:45.548Z,2.42
2019-02-25T19:34:53.688Z,9.23
2019-02-25T19:39:58.534Z,3.37
2019-02-25T19:45:11.225Z,3.60
2019-02-25T19:50:17.338Z,2.72
2019-02-25T19:55:23.442Z,2.00
2019-02-25T20:00:30.583Z,2.63
2019-02-25T20:05:38.686Z,3.73
2019-02-25T20:10:41.446Z,3.10
2019-02-25T20:15:46.783Z,4.30
2019-02-25T20:20:52.723Z,4.42
2019-02-25T20:25:57.836Z,2.27
2019-02-25T20:31:02.887Z,3.42
2019-02-25T20:36:07.416Z,2.87
2019-02-25T20:41:11.874Z,2.90
2019-02-25T20:46:19.918Z,3.37
2019-02-25T20:51:25.053Z,4.75
2019-02-25T20:56:31.118Z,4.50
2019-02-25T21:01:39.494Z,5.75
2019-02-25T21:06:44.070Z,3.13
2019-02-25T21:11:48.827Z,4.43
2019-02-25T21:16:54.334Z,5.07
2019-02-25T21:22:00.248Z,3.83
2019-02-25T21:27:08.593Z,7.63
2019-02-25T21:32:17.250Z,4.67
2019-02-25T21:37:21.362Z,2.92
2019-02-25T21:42:27.846Z,5.23
2019-02-25T21:47:33.464Z,4.03
2019-02-25T21:52:39.386Z,6.03
2019-02-25T21:57:44.562Z,4.20
2019-02-25T22:02:50.457Z,4.17
2019-02-25T22:07:57.126Z,4.00
2019-02-25T22:13:04.355Z,7.27
2019-02-25T22:18:08.638Z,3.70
2019-02-25T22:23:13.561Z,6.17
2019-02-25T22:28:17.739Z,6.13
2019-02-25T22:33:27.739Z,2.83
2019-02-25T22:38:29.207Z,3.97
2019-02-25T22:43:34.202Z,2.50
2019-02-25T22:48:40.423Z,3.90
2019-02-25T22:53:46.521Z,5.57
2019-02-25T22:58:50.689Z,7.13
2019-02-25T23:03:55.515Z,5.13
2019-02-25T23:09:00.825Z,3.80
2019-02-25T23:14:09.331Z,3.70
2019-02-25T23:19:14.098Z,2.80
2019-02-25T23:24:21.649Z,4.43
2019-02-25T23:29:27.933Z,5.30
2019-02-25T23:34:31.406Z,4.93
2019-02-25T23:39:36.231Z,3.17
2019-02-25T23:44:42.018Z,2.80
2019-02-25T23:49:46.939Z,4.73
2019-02-25T23:54:54.340Z,4.73
2019-02-25T23:59:58.689Z,4.50
